This is the latest recevied weather packets stored in our database for station/object SQ6RR-12. If no packets are shown the sender has not sent any weather packets the latest 1 day(s).
| Time | Temp. | Humidity | Pressure | Rain* | Wind** | Luminosity | Snow |
|---|---|---|---|---|---|---|---|
| 1777991144 | 25.56° C | 39% | 1007.1 hPa | 0 mm | 0 m/s | - | - |
| 1777990875 | 26.11° C | 38% | 1007.2 hPa | 0 mm | 0 m/s | - | - |
| 1777990607 | 25.56° C | 39% | 1007.2 hPa | 0 mm | 0 m/s | - | - |
| 1777990347 | 25° C | 40% | 1007.2 hPa | 0 mm | 0 m/s | - | - |
| 1777990082 | 26.11° C | 38% | 1007.2 hPa | 0 mm | 0 m/s | - | - |
| 1777989807 | 26.11° C | 39% | 1007.3 hPa | 0 mm | 0 m/s | - | - |
| 1777989546 | 26.11° C | 39% | 1007.4 hPa | 0 mm | 0 m/s | - | - |
| 1777989287 | 26.11° C | 39% | 1007.5 hPa | 0 mm | 0 m/s | - | - |
| 1777989020 | 25° C | 40% | 1007.6 hPa | 0 mm | 0 m/s | - | - |
| 1777988769 | 25° C | 40% | 1007.6 hPa | 0 mm | 0 m/s | - | - |
| 1777988492 | 25.56° C | 38% | 1007.5 hPa | 0 mm | 0 m/s | - | - |
| 1777988211 | 26.11° C | 36% | 1007.5 hPa | 0 mm | 0 m/s | - | - |
| 1777987942 | 26.67° C | 35% | 1007.4 hPa | 0 mm | 0 m/s | - | - |
| 1777987653 | 26.11° C | 36% | 1007.5 hPa | 0 mm | 0 m/s | - | - |
| 1777987370 | 26.67° C | 33% | 1007.5 hPa | 0 mm | 0 m/s | - | - |
| 1777987092 | 27.78° C | 33% | 1007.5 hPa | 0 mm | 0 m/s | - | - |
| 1777986822 | 28.33° C | 31% | 1007.5 hPa | 0 mm | 0 m/s | - | - |
| 1777986562 | 28.33° C | 30% | 1007.5 hPa | 0 mm | 0 m/s | - | - |
| 1777986287 | 28.89° C | 27% | 1007.5 hPa | 0 mm | 0 m/s | - | - |
| 1777986017 | 28.89° C | 26% | 1007.5 hPa | 0 mm | 0 m/s | - | - |
| 1777985764 | 29.44° C | 26% | 1007.6 hPa | 0 mm | 0 m/s | - | - |
| 1777985492 | 28.89° C | 28% | 1007.5 hPa | 0 mm | 0 m/s | - | - |
| 1777985222 | 28.89° C | 27% | 1007.5 hPa | 0 mm | 0 m/s | - | - |
| 1777984952 | 28.89° C | 27% | 1007.6 hPa | 0 mm | 0 m/s | - | - |
| 1777984677 | 28.89° C | 29% | 1007.6 hPa | 0 mm | 0 m/s | - | - |
* Rain latest hour (hover to see other rain measurements)
** Current wind speed in m/s (hover to see current wind gust speed)